Time;durP1;ratioP1;P1;durP2;ratioP2;P2;SDS_P1;SDS_P2;PMS_P1;PMS_P2;Temp;Humidity;BMP_temperature;BMP_pressure;BME280_temperature;BME280_humidity;BME280_pressure;Samples;Min_cycle;Max_cycle;Signal;HPM_P1;HPM_P2
2022/11/13 00:01:06;;;;;;;83.43;7.60;;;;;;;1.66;100.00;94765.63;4875475;29;20506;-54
2022/11/13 00:03:32;;;;;;;57.30;8.35;;;;;;;1.58;100.00;94768.06;4892888;29;20060;-56
2022/11/13 00:06:00;;;;;;;141.87;9.47;;;;;;;1.52;100.00;94768.63;4892051;29;20107;-54
2022/11/13 00:08:27;;;;;;;32.58;6.40;;;;;;;1.60;100.00;94773.16;4892721;29;20184;-52
2022/11/13 00:11:14;;;;;;;77.88;7.78;;;;;;;1.46;100.00;94765.34;4875517;29;20057;-56
2022/11/13 00:13:44;;;;;;;54.78;6.90;;;;;;;1.56;100.00;94766.84;4892134;29;20057;-56
2022/11/13 00:16:16;;;;;;;43.10;6.78;;;;;;;1.40;100.00;94758.59;4892703;29;20558;-55
2022/11/13 00:18:43;;;;;;;35.50;6.67;;;;;;;1.45;100.00;94766.50;4894760;29;20070;-53
2022/11/13 00:21:13;;;;;;;32.50;6.47;;;;;;;1.35;100.00;94758.81;4896210;29;20052;-54
2022/11/13 00:23:40;;;;;;;45.42;6.20;;;;;;;1.40;100.00;94761.28;4895289;29;20413;-55
2022/11/13 00:26:18;;;;;;;49.53;6.85;;;;;;;1.39;100.00;94759.72;4896107;29;20099;-52
2022/11/13 00:28:46;;;;;;;169.43;8.95;;;;;;;1.34;100.00;94754.53;4895347;29;20054;-54
2022/11/13 00:31:14;;;;;;;103.70;7.13;;;;;;;1.22;100.00;94751.81;4895255;29;20068;-53
2022/11/13 00:33:41;;;;;;;84.45;6.63;;;;;;;1.15;100.00;94746.97;4895218;29;20048;-56
2022/11/13 00:36:28;;;;;;;83.97;6.53;;;;;;;1.18;100.00;94735.47;4895717;29;20040;-55
2022/11/13 00:38:55;;;;;;;63.30;6.88;;;;;;;1.25;100.00;94743.81;4896161;29;20052;-54
2022/11/13 00:41:23;;;;;;;64.90;6.70;;;;;;;1.25;100.00;94740.31;4900052;29;20561;-53
2022/11/13 00:43:50;;;;;;;38.10;6.30;;;;;;;1.22;100.00;94732.88;4894914;29;20044;-56
2022/11/13 00:46:17;;;;;;;85.30;7.28;;;;;;;1.22;100.00;94728.25;4895510;29;20111;-53
2022/11/13 00:48:43;;;;;;;150.18;8.23;;;;;;;1.12;100.00;94723.28;4894628;29;20119;-56
2022/11/13 00:51:10;;;;;;;67.03;7.20;;;;;;;1.11;100.00;94727.13;4894032;29;20052;-53
2022/11/13 00:53:37;;;;;;;85.38;7.90;;;;;;;1.14;100.00;94729.16;4894945;29;20439;-53
2022/11/13 00:56:04;;;;;;;68.53;8.20;;;;;;;1.11;100.00;94719.03;4895376;29;20055;-53
2022/11/13 00:58:31;;;;;;;162.82;9.23;;;;;;;1.11;100.00;94725.22;4895423;29;20051;-51
2022/11/13 01:01:13;;;;;;;64.15;6.70;;;;;;;0.90;100.00;94725.25;4894502;29;20067;-54
2022/11/13 01:03:40;;;;;;;123.47;8.13;;;;;;;0.97;100.00;94722.03;4894598;29;20111;-59
2022/11/13 01:06:10;;;;;;;148.48;8.88;;;;;;;1.05;100.00;94715.75;4895274;29;20044;-56
2022/11/13 01:08:36;;;;;;;63.33;6.57;;;;;;;1.12;100.00;94713.25;4894832;29;20045;-54
2022/11/13 01:11:13;;;;;;;69.70;9.10;;;;;;;0.94;100.00;94723.47;4894940;29;20049;-56
2022/11/13 01:13:42;;;;;;;60.67;8.95;;;;;;;1.02;100.00;94718.31;4894520;29;20490;-55
2022/11/13 01:16:10;;;;;;;35.97;6.93;;;;;;;1.07;100.00;94718.09;4895221;29;20045;-53
2022/11/13 01:18:38;;;;;;;64.75;7.05;;;;;;;1.04;100.00;94710.66;4894574;29;20399;-53
2022/11/13 01:21:08;;;;;;;102.37;6.80;;;;;;;0.74;100.00;94713.50;4878097;29;20265;-55
2022/11/13 01:23:35;;;;;;;61.58;6.53;;;;;;;0.94;100.00;94698.34;4894447;29;20103;-53
2022/11/13 01:26:08;;;;;;;41.85;9.68;;;;;;;1.03;100.00;94698.25;4877842;29;20049;-54
2022/11/13 01:28:35;;;;;;;42.80;9.48;;;;;;;1.18;100.00;94692.19;4894157;29;20045;-54
2022/11/13 01:31:06;;;;;;;83.85;6.50;;;;;;;1.00;100.00;94689.69;4893987;29;20058;-56
2022/11/13 01:33:34;;;;;;;69.77;6.37;;;;;;;0.82;100.00;94682.91;4895032;29;20090;-54
2022/11/13 01:36:11;;;;;;;93.03;7.30;;;;;;;0.83;100.00;94672.91;4893424;29;20982;-51
2022/11/13 01:38:38;;;;;;;33.35;6.13;;;;;;;0.91;100.00;94674.72;4894175;29;20052;-51
2022/11/13 01:41:07;;;;;;;37.45;6.53;;;;;;;0.89;100.00;94669.66;4901679;29;20544;-53
2022/11/13 01:43:37;;;;;;;106.13;7.40;;;;;;;0.84;100.00;94664.44;4894607;29;20053;-52
2022/11/13 01:46:06;;;;;;;55.03;9.90;;;;;;;0.90;100.00;94663.09;4876931;29;20496;-53
2022/11/13 01:48:38;;;;;;;79.10;7.13;;;;;;;0.73;100.00;94655.22;4894651;29;20099;-53
2022/11/13 01:51:11;;;;;;;46.58;5.78;;;;;;;0.77;100.00;94658.81;4892266;29;20852;-51
2022/11/13 01:53:42;;;;;;;114.63;7.32;;;;;;;0.80;100.00;94652.72;4894019;29;20111;-53
2022/11/13 01:56:09;;;;;;;73.32;6.63;;;;;;;0.61;100.00;94644.38;4894463;29;20056;-58
2022/11/13 01:58:37;;;;;;;78.20;6.00;;;;;;;0.71;100.00;94642.03;4893913;29;20045;-52
2022/11/13 02:01:03;;;;;;;72.80;6.30;;;;;;;0.65;100.00;94639.88;4894025;29;20048;-53
2022/11/13 02:03:30;;;;;;;66.45;6.82;;;;;;;0.61;100.00;94637.06;4894416;29;20056;-55
2022/11/13 02:05:57;;;;;;;105.18;7.15;;;;;;;0.54;100.00;94634.09;4893411;29;20048;-54
2022/11/13 02:08:23;;;;;;;131.18;9.05;;;;;;;0.58;100.00;94635.00;4894165;29;20150;-53
2022/11/13 02:10:51;;;;;;;51.90;6.07;;;;;;;0.59;100.00;94634.69;4893304;29;20041;-54
2022/11/13 02:13:19;;;;;;;63.63;6.82;;;;;;;0.55;100.00;94633.78;4894132;29;20489;-50
2022/11/13 02:15:48;;;;;;;55.75;6.95;;;;;;;0.66;100.00;94631.44;4893299;29;20052;-53
2022/11/13 02:18:17;;;;;;;90.15;7.25;;;;;;;0.57;100.00;94628.81;4894031;29;20051;-53
2022/11/13 02:20:52;;;;;;;129.15;9.80;;;;;;;0.69;100.00;94625.38;4893199;29;20051;-59
2022/11/13 02:23:21;;;;;;;45.97;6.07;;;;;;;0.65;100.00;94629.06;4893926;29;20052;-55
2022/11/13 02:25:51;;;;;;;161.48;7.43;;;;;;;0.62;100.00;94622.41;4893180;29;20048;-54
2022/11/13 02:28:18;;;;;;;46.40;6.03;;;;;;;0.76;100.00;94625.59;4893655;29;20119;-53
2022/11/13 02:30:45;;;;;;;72.05;5.47;;;;;;;0.67;100.00;94611.41;4893051;29;20263;-54
2022/11/13 02:33:30;;;;;;;68.38;5.93;;;;;;;0.59;100.00;94607.69;4893490;29;20157;-55
2022/11/13 02:35:57;;;;;;;29.63;5.60;;;;;;;0.63;100.00;94602.41;4892932;29;20380;-54
2022/11/13 02:38:24;;;;;;;47.55;5.82;;;;;;;0.45;100.00;94609.91;4893614;29;20092;-53
2022/11/13 02:40:51;;;;;;;93.28;6.13;;;;;;;0.43;100.00;94600.56;4886197;29;20052;-52
2022/11/13 02:43:17;;;;;;;80.80;5.93;;;;;;;0.33;100.00;94602.56;4893857;29;20055;-53
2022/11/13 02:45:44;;;;;;;75.53;5.95;;;;;;;0.24;100.00;94603.75;4892978;29;20141;-53
2022/11/13 02:48:11;;;;;;;143.10;8.03;;;;;;;0.06;100.00;94600.44;4893729;29;20058;-54
2022/11/13 02:50:38;;;;;;;89.13;6.47;;;;;;;0.15;100.00;94595.75;4891628;29;20084;-52
2022/11/13 02:53:05;;;;;;;51.45;5.10;;;;;;;0.24;100.00;94588.34;4893135;29;20037;-52
2022/11/13 02:55:32;;;;;;;105.97;6.38;;;;;;;0.34;100.00;94587.94;4893436;29;20067;-53
2022/11/13 02:57:58;;;;;;;163.05;8.43;;;;;;;0.15;100.00;94590.34;4875924;29;20049;-51
2022/11/13 03:00:26;;;;;;;130.20;7.13;;;;;;;0.09;100.00;94573.56;4876582;29;20053;-56
2022/11/13 03:02:52;;;;;;;97.35;6.78;;;;;;;0.24;100.00;94582.94;4892522;29;20052;-56
2022/11/13 03:05:19;;;;;;;46.03;6.22;;;;;;;0.23;100.00;94577.91;4876608;29;20127;-54
2022/11/13 03:07:46;;;;;;;134.13;7.80;;;;;;;0.08;100.00;94577.41;4892873;29;20083;-52
2022/11/13 03:10:13;;;;;;;85.15;7.80;;;;;;;0.18;100.00;94587.78;4893335;29;20060;-51
2022/11/13 03:12:40;;;;;;;84.50;6.47;;;;;;;0.13;100.00;94581.78;4892326;29;20067;-53
2022/11/13 03:15:07;;;;;;;70.57;7.05;;;;;;;0.18;100.00;94576.97;4876334;29;20344;-55
2022/11/13 03:17:34;;;;;;;50.17;6.50;;;;;;;0.16;100.00;94583.81;4892823;29;20049;-52
2022/11/13 03:20:02;;;;;;;34.75;6.72;;;;;;;0.21;100.00;94574.75;4892767;29;20044;-53
2022/11/13 03:22:28;;;;;;;18.83;5.70;;;;;;;0.17;100.00;94574.59;4893248;29;20057;-52
2022/11/13 03:24:56;;;;;;;44.90;6.93;;;;;;;0.15;100.00;94576.84;4892666;29;20380;-54
2022/11/13 03:27:22;;;;;;;46.97;6.68;;;;;;;0.21;100.00;94567.44;4893019;29;20080;-50
2022/11/13 03:29:49;;;;;;;39.92;6.53;;;;;;;0.15;100.00;94572.25;4892208;29;20056;-51
2022/11/13 03:32:16;;;;;;;25.90;6.60;;;;;;;0.08;100.00;94576.59;4892921;29;20056;-53
2022/11/13 03:34:42;;;;;;;39.97;6.70;;;;;;;0.04;100.00;94575.69;4892382;29;20064;-51
2022/11/13 03:37:09;;;;;;;13.90;6.63;;;;;;;0.06;100.00;94573.44;4893036;29;20059;-49
2022/11/13 03:39:35;;;;;;;12.63;6.10;;;;;;;0.05;100.00;94569.19;4899000;29;20056;-51
2022/11/13 03:42:02;;;;;;;12.32;5.72;;;;;;;0.08;100.00;94573.91;4897782;29;20458;-50
2022/11/13 03:44:29;;;;;;;14.15;5.40;;;;;;;0.04;100.00;94575.69;4893130;29;20527;-53
2022/11/13 03:46:55;;;;;;;19.20;5.68;;;;;;;0.03;100.00;94566.03;4892391;29;20051;-54
2022/11/13 03:49:22;;;;;;;20.37;6.27;;;;;;;0.01;100.00;94562.88;4893014;29;20410;-54
2022/11/13 03:51:49;;;;;;;24.77;5.85;;;;;;;0.08;100.00;94560.41;4892691;29;20048;-52
2022/11/13 03:54:15;;;;;;;26.83;6.03;;;;;;;0.02;100.00;94567.94;4896512;29;20091;-52
2022/11/13 03:56:42;;;;;;;35.80;11.57;;;;;;;0.01;100.00;94570.97;4896006;29;20045;-53
2022/11/13 03:59:09;;;;;;;48.40;6.55;;;;;;;-0.08;100.00;94562.94;4896216;29;20477;-55
2022/11/13 04:01:35;;;;;;;35.33;6.80;;;;;;;-0.07;100.00;94565.31;4896094;29;20059;-53
2022/11/13 04:04:02;;;;;;;26.50;6.30;;;;;;;-0.05;100.00;94554.19;4896405;29;20406;-54
2022/11/13 04:06:29;;;;;;;42.72;6.75;;;;;;;-0.07;100.00;94561.81;4896531;29;20041;-54
2022/11/13 04:08:56;;;;;;;56.72;6.68;;;;;;;-0.05;100.00;94552.28;4895916;29;20044;-52
2022/11/13 04:11:23;;;;;;;38.45;6.50;;;;;;;-0.05;100.00;94546.88;4896205;29;20470;-53
2022/11/13 04:13:49;;;;;;;37.07;6.00;;;;;;;-0.12;100.00;94549.34;4895887;29;20057;-50
2022/11/13 04:16:16;;;;;;;18.42;6.45;;;;;;;0.03;100.00;94544.44;4896339;29;20048;-53
2022/11/13 04:18:42;;;;;;;24.48;6.72;;;;;;;0.05;100.00;94537.56;4895549;29;20044;-52
2022/11/13 04:21:09;;;;;;;24.40;6.13;;;;;;;0.08;100.00;94536.94;4895879;29;20144;-56
2022/11/13 04:23:36;;;;;;;63.80;7.13;;;;;;;-0.03;100.00;94530.38;4895706;29;20208;-54
2022/11/13 04:26:03;;;;;;;19.47;6.30;;;;;;;0.16;100.00;94524.44;4895966;29;20053;-53
2022/11/13 04:28:29;;;;;;;24.73;6.13;;;;;;;0.08;100.00;94519.91;4891910;29;20059;-54
2022/11/13 04:30:57;;;;;;;34.97;6.78;;;;;;;0.15;100.00;94520.97;4895046;29;20521;-52
2022/11/13 04:33:23;;;;;;;23.42;5.95;;;;;;;0.15;100.00;94520.19;4892503;29;20060;-52
2022/11/13 04:35:50;;;;;;;24.10;6.32;;;;;;;0.24;100.00;94518.16;4895221;29;20054;-55
2022/11/13 04:38:16;;;;;;;52.53;6.77;;;;;;;0.12;100.00;94520.84;4895964;29;20103;-52
2022/11/13 04:40:43;;;;;;;79.72;7.30;;;;;;;0.08;100.00;94511.81;4897406;29;20557;-53
2022/11/13 04:43:10;;;;;;;23.98;5.85;;;;;;;0.17;100.00;94509.84;4875544;29;20104;-52
2022/11/13 04:45:36;;;;;;;81.65;6.60;;;;;;;0.10;100.00;94504.19;4887677;29;20346;-53
2022/11/13 04:48:03;;;;;;;105.05;8.05;;;;;;;0.05;100.00;94510.59;4895415;29;20059;-51
2022/11/13 04:50:31;;;;;;;59.70;8.40;;;;;;;0.03;100.00;94503.97;4895704;29;20067;-53
2022/11/13 04:52:57;;;;;;;66.13;7.40;;;;;;;0.05;100.00;94507.13;4894770;29;20442;-53
2022/11/13 04:55:24;;;;;;;64.65;7.35;;;;;;;0.02;100.00;94502.38;4895359;29;20513;-52
2022/11/13 04:57:54;;;;;;;24.35;6.18;;;;;;;0.03;100.00;94502.03;4894932;29;20361;-52
2022/11/13 05:00:21;;;;;;;12.65;5.80;;;;;;;0.04;100.00;94498.25;4895358;29;20049;-49
2022/11/13 05:02:48;;;;;;;28.60;6.93;;;;;;;0.02;100.00;94499.66;4894965;29;20061;-52
2022/11/13 05:05:15;;;;;;;22.88;6.43;;;;;;;0.02;100.00;94496.97;4894052;29;20048;-50
2022/11/13 05:07:41;;;;;;;15.93;6.85;;;;;;;0.01;100.00;94498.13;4894867;29;20048;-55
2022/11/13 05:10:08;;;;;;;31.98;9.25;;;;;;;0.07;100.00;94489.47;4894935;29;20520;-55
2022/11/13 05:12:35;;;;;;;13.95;6.60;;;;;;;-0.04;100.00;94494.50;4878006;29;20045;-51
2022/11/13 05:15:03;;;;;;;14.13;6.47;;;;;;;-0.05;100.00;94486.75;4895168;29;20486;-54
2022/11/13 05:17:29;;;;;;;24.63;7.18;;;;;;;-0.04;100.00;94483.72;4895208;29;20413;-53
2022/11/13 05:19:56;;;;;;;19.75;6.40;;;;;;;-0.04;100.00;94483.72;4862381;29;20051;-52
2022/11/13 05:22:23;;;;;;;24.38;6.40;;;;;;;-0.08;100.00;94479.28;4895031;29;20053;-52
2022/11/13 05:24:49;;;;;;;21.48;6.13;;;;;;;-0.13;100.00;94477.59;4894442;29;20053;-56
2022/11/13 05:27:16;;;;;;;16.00;6.40;;;;;;;-0.12;100.00;94471.09;4894005;29;20044;-55
2022/11/13 05:29:43;;;;;;;26.30;6.40;;;;;;;-0.07;100.00;94465.47;4894452;29;20407;-52
2022/11/13 05:32:10;;;;;;;36.22;6.70;;;;;;;-0.09;100.00;94462.31;4894845;29;20103;-53
2022/11/13 05:34:37;;;;;;;31.17;6.40;;;;;;;-0.02;100.00;94459.88;4894208;29;20076;-50
2022/11/13 05:37:03;;;;;;;45.35;6.45;;;;;;;-0.04;100.00;94459.44;4894560;29;20041;-53
2022/11/13 05:39:30;;;;;;;33.93;6.40;;;;;;;-0.13;100.00;94460.63;4882819;29;20052;-53
2022/11/13 05:41:57;;;;;;;45.28;6.75;;;;;;;-0.21;100.00;94462.31;4893946;29;20048;-52
2022/11/13 05:44:23;;;;;;;57.15;6.70;;;;;;;-0.32;100.00;94461.94;4894556;29;20107;-52
2022/11/13 05:46:50;;;;;;;68.13;7.30;;;;;;;-0.22;100.00;94463.44;4894196;29;20043;-52
2022/11/13 05:49:17;;;;;;;27.98;6.57;;;;;;;-0.14;100.00;94467.94;4874632;29;20491;-55
2022/11/13 05:51:43;;;;;;;39.40;6.93;;;;;;;-0.20;100.00;94469.28;4892585;29;20056;-53
2022/11/13 05:54:10;;;;;;;28.65;6.35;;;;;;;-0.16;100.00;94472.91;4894316;29;20060;-50
2022/11/13 05:56:37;;;;;;;24.60;5.75;;;;;;;-0.09;100.00;94461.53;4894054;29;20045;-51
2022/11/13 05:59:04;;;;;;;36.00;6.38;;;;;;;-0.12;100.00;94468.41;4893976;29;20048;-54
2022/11/13 06:01:35;;;;;;;69.90;7.32;;;;;;;-0.06;100.00;94463.56;4894309;29;20062;-54
2022/11/13 06:04:03;;;;;;;31.70;6.27;;;;;;;-0.09;100.00;94456.16;4893387;29;20905;-53
2022/11/13 06:06:31;;;;;;;36.28;7.53;;;;;;;-0.09;100.00;94451.53;4894123;29;20049;-50
2022/11/13 06:09:01;;;;;;;65.65;7.40;;;;;;;-0.16;100.00;94451.31;4893452;29;20056;-50
2022/11/13 06:11:29;;;;;;;21.80;8.15;;;;;;;0.07;100.00;94448.19;4894256;29;20103;-50
2022/11/13 06:13:57;;;;;;;51.92;7.72;;;;;;;0.08;100.00;94447.06;4893428;29;20632;-59
2022/11/13 06:16:28;;;;;;;35.87;7.17;;;;;;;0.06;100.00;94443.91;4894329;29;20057;-50
2022/11/13 06:18:57;;;;;;;26.23;8.88;;;;;;;0.18;100.00;94447.44;4877172;29;20052;-53
2022/11/13 06:21:26;;;;;;;60.38;7.18;;;;;;;0.19;100.00;94446.28;4893891;29;20059;-55
2022/11/13 06:23:53;;;;;;;27.73;6.32;;;;;;;0.34;100.00;94439.44;4893165;29;20060;-52
2022/11/13 06:26:32;;;;;;;26.08;6.63;;;;;;;0.34;100.00;94439.44;4893689;29;20056;-51
2022/11/13 06:29:00;;;;;;;45.30;6.87;;;;;;;0.39;100.00;94441.13;4893261;29;20040;-54
2022/11/13 06:31:29;;;;;;;94.20;9.73;;;;;;;0.29;100.00;94430.78;4893792;29;20059;-53
2022/11/13 06:34:00;;;;;;;51.42;8.07;;;;;;;0.34;100.00;94434.06;4893313;29;20099;-57
2022/11/13 06:36:29;;;;;;;19.05;6.55;;;;;;;0.50;100.00;94431.44;4893592;29;20104;-50
2022/11/13 06:38:56;;;;;;;167.82;26.40;;;;;;;0.49;100.00;94418.28;4892814;29;20490;-58
2022/11/13 06:41:26;;;;;;;36.10;8.57;;;;;;;0.52;100.00;94421.09;4893629;29;20070;-54
2022/11/13 06:43:52;;;;;;;66.93;6.63;;;;;;;0.22;100.00;94422.44;4893046;29;20052;-52
2022/11/13 06:46:24;;;;;;;65.78;6.38;;;;;;;0.08;100.00;94420.06;4876883;29;20509;-56
2022/11/13 06:48:51;;;;;;;54.63;7.07;;;;;;;0.07;100.00;94422.00;4893044;29;20040;-56
2022/11/13 06:51:20;;;;;;;100.75;7.82;;;;;;;0.10;100.00;94420.53;4893077;29;20052;-55
2022/11/13 06:53:48;;;;;;;50.17;6.90;;;;;;;0.04;100.00;94409.19;4892726;29;20048;-52
2022/11/13 06:56:16;;;;;;;107.82;7.38;;;;;;;-0.03;100.00;94409.72;4893339;29;20057;-51
2022/11/13 06:58:43;;;;;;;121.43;6.97;;;;;;;-0.15;100.00;94407.00;4892735;29;20044;-54
2022/11/13 07:01:15;;;;;;;48.75;6.35;;;;;;;-0.21;100.00;94411.06;4891485;29;20048;-51
2022/11/13 07:03:43;;;;;;;28.08;5.35;;;;;;;-0.13;100.00;94414.78;4892685;29;20088;-56
2022/11/13 07:06:18;;;;;;;69.57;9.23;;;;;;;-0.10;100.00;94414.09;4891557;29;20060;-52
2022/11/13 07:08:46;;;;;;;70.57;15.55;;;;;;;-0.07;100.00;94413.44;4892554;29;20048;-51
2022/11/13 07:11:15;;;;;;;84.63;16.50;;;;;;;-0.14;100.00;94411.31;4893016;29;20417;-55
2022/11/13 07:13:42;;;;;;;88.03;31.88;;;;;;;-0.18;100.00;94405.00;4892595;29;20544;-54
2022/11/13 07:16:10;;;;;;;67.68;15.85;;;;;;;-0.06;100.00;94406.91;4893044;29;20044;-52
2022/11/13 07:18:53;;;;;;;91.33;27.10;;;;;;;-0.05;100.00;94403.09;4893040;29;20052;-51
2022/11/13 07:21:21;;;;;;;59.90;14.18;;;;;;;0.03;100.00;94399.50;4880275;29;20190;-55
2022/11/13 07:23:49;;;;;;;53.10;11.65;;;;;;;0.04;100.00;94405.69;4892553;29;20056;-52
2022/11/13 07:26:16;;;;;;;60.13;10.13;;;;;;;0.07;100.00;94400.41;4892860;29;20128;-55
2022/11/13 07:28:42;;;;;;;109.90;9.77;;;;;;;0.25;100.00;94403.66;4895760;29;20107;-52
2022/11/13 07:31:11;;;;;;;98.03;13.27;;;;;;;0.18;100.00;94414.22;4896591;29;20123;-54
2022/11/13 07:33:38;;;;;;;56.90;9.32;;;;;;;0.36;100.00;94412.91;4896298;29;20055;-53
2022/11/13 07:36:05;;;;;;;54.80;9.18;;;;;;;0.41;100.00;94411.09;4896720;29;20050;-53
2022/11/13 07:38:32;;;;;;;27.95;11.25;;;;;;;0.57;100.00;94409.28;4896916;29;20063;-51
2022/11/13 07:40:59;;;;;;;53.05;14.68;;;;;;;0.87;100.00;94409.78;4904679;29;20052;-55
2022/11/13 07:43:26;;;;;;;65.87;20.23;;;;;;;0.82;100.00;94412.72;4896661;29;20465;-52
2022/11/13 07:45:54;;;;;;;27.33;10.52;;;;;;;0.92;100.00;94416.88;4896250;29;20399;-55
2022/11/13 07:48:21;;;;;;;40.30;14.27;;;;;;;1.05;100.00;94414.91;4896481;29;20074;-56
2022/11/13 07:50:49;;;;;;;28.52;9.55;;;;;;;1.28;100.00;94407.06;4879430;29;20111;-55
2022/11/13 07:53:17;;;;;;;24.48;10.73;;;;;;;1.26;100.00;94407.41;4896525;29;20048;-55
2022/11/13 07:55:44;;;;;;;24.30;6.73;;;;;;;1.22;100.00;94400.34;4895890;29;20052;-52
2022/11/13 07:58:11;;;;;;;35.85;6.60;;;;;;;1.25;100.00;94407.75;4896187;29;20116;-51
2022/11/13 08:00:38;;;;;;;27.95;6.20;;;;;;;1.59;100.00;94415.28;4894422;29;20045;-56
2022/11/13 08:03:11;;;;;;;29.17;5.80;;;;;;;1.63;100.00;94411.88;4896093;29;20044;-54
2022/11/13 08:05:38;;;;;;;18.50;6.38;;;;;;;1.60;100.00;94408.72;4895642;29;20119;-55
2022/11/13 08:08:06;;;;;;;12.53;5.63;;;;;;;1.52;100.00;94412.38;4895808;29;20052;-54
2022/11/13 08:10:34;;;;;;;17.27;6.10;;;;;;;1.44;100.00;94401.72;4896008;29;20372;-54
2022/11/13 08:13:04;;;;;;;17.33;5.88;;;;;;;1.19;100.00;94408.00;4895643;29;20217;-54
2022/11/13 08:15:31;;;;;;;11.52;5.38;;;;;;;1.45;100.00;94411.38;4896114;29;20056;-52
2022/11/13 08:18:00;;;;;;;19.48;11.82;;;;;;;1.69;100.00;94405.88;4895689;29;20055;-52
2022/11/13 08:20:28;;;;;;;18.10;10.17;;;;;;;2.00;100.00;94396.22;4896022;29;20061;-56
2022/11/13 08:23:01;;;;;;;22.77;13.73;;;;;;;2.17;100.00;94393.16;4895463;29;20166;-52
2022/11/13 08:25:29;;;;;;;28.27;16.65;;;;;;;2.17;100.00;94393.16;4896021;29;20048;-54
2022/11/13 08:27:56;;;;;;;47.08;25.75;;;;;;;2.78;100.00;94383.69;4895728;29;20115;-54
2022/11/13 08:30:24;;;;;;;15.98;7.60;;;;;;;2.83;100.00;94379.91;4895750;29;20048;-52
2022/11/13 08:32:51;;;;;;;10.40;5.23;;;;;;;2.67;100.00;94376.47;4878651;29;20044;-55
2022/11/13 08:35:18;;;;;;;11.15;5.05;;;;;;;2.63;100.00;94384.50;4895543;29;20060;-52
2022/11/13 08:37:48;;;;;;;10.35;5.55;;;;;;;2.68;100.00;94381.53;4895315;29;20044;-56
2022/11/13 08:40:15;;;;;;;10.45;5.72;;;;;;;2.94;99.94;94378.22;4894514;29;20060;-54
2022/11/13 08:42:41;;;;;;;9.10;5.25;;;;;;;2.83;99.95;94371.00;4895371;29;20351;-53
2022/11/13 08:45:09;;;;;;;9.77;5.73;;;;;;;2.89;100.00;94367.66;4895293;29;20048;-55
2022/11/13 08:47:36;;;;;;;10.02;5.65;;;;;;;2.84;99.94;94353.59;4878825;29;20048;-54
2022/11/13 08:50:04;;;;;;;11.82;6.15;;;;;;;3.15;98.83;94348.03;4895798;29;20405;-54
2022/11/13 08:52:31;;;;;;;9.70;5.20;;;;;;;3.38;97.49;94347.31;4895536;29;20096;-55
2022/11/13 08:54:58;;;;;;;9.35;5.05;;;;;;;3.39;96.04;94340.75;4895124;29;20045;-52
2022/11/13 08:57:24;;;;;;;9.30;4.73;;;;;;;3.48;96.31;94335.91;4895419;29;20068;-54
2022/11/13 08:59:51;;;;;;;8.55;4.90;;;;;;;3.54;95.59;94341.78;4895024;29;20294;-56
2022/11/13 09:02:18;;;;;;;9.60;5.25;;;;;;;3.71;94.66;94341.34;4893701;29;20056;-54
2022/11/13 09:04:44;;;;;;;8.70;4.60;;;;;;;4.57;91.77;94339.97;4895350;29;20418;-56
2022/11/13 09:07:11;;;;;;;9.85;5.50;;;;;;;4.23;92.80;94341.03;4895152;29;20075;-53
2022/11/13 09:09:38;;;;;;;26.37;15.17;;;;;;;4.29;92.90;94339.56;4894644;29;20433;-57
2022/11/13 09:12:04;;;;;;;15.35;9.55;;;;;;;4.44;91.45;94343.28;4895072;29;20041;-56
2022/11/13 09:14:31;;;;;;;12.32;6.85;;;;;;;3.84;93.74;94336.50;4895157;29;20048;-56
2022/11/13 09:16:58;;;;;;;16.35;7.78;;;;;;;3.92;94.83;94338.19;4894578;29;20370;-53
2022/11/13 09:19:25;;;;;;;12.70;7.45;;;;;;;3.66;95.93;94349.75;4895175;29;20056;-55
2022/11/13 09:21:52;;;;;;;29.13;15.70;;;;;;;3.91;96.61;94347.50;4894697;29;20045;-53
2022/11/13 09:24:19;;;;;;;33.50;17.83;;;;;;;3.68;95.96;94341.25;4894600;29;20048;-56
2022/11/13 09:26:46;;;;;;;17.58;9.98;;;;;;;3.35;98.28;94332.53;4894123;29;20414;-56
2022/11/13 09:29:12;;;;;;;9.82;5.38;;;;;;;3.14;98.74;94340.25;4894908;29;20056;-55
2022/11/13 09:31:39;;;;;;;10.60;6.10;;;;;;;3.23;99.26;94340.84;4894031;29;20053;-54
2022/11/13 09:34:07;;;;;;;17.23;9.80;;;;;;;3.15;99.29;94348.03;4894594;29;20526;-57
2022/11/13 09:36:34;;;;;;;21.40;12.25;;;;;;;3.15;100.00;94353.47;4894402;29;20104;-53
2022/11/13 09:39:05;;;;;;;13.77;7.53;;;;;;;3.18;99.71;94349.28;4896354;29;20040;-54
2022/11/13 09:41:47;;;;;;;11.35;6.65;;;;;;;3.42;100.00;94342.75;4898450;29;20040;-56
2022/11/13 09:44:23;;;;;;;9.98;5.78;;;;;;;3.64;98.72;94337.72;4893655;29;21149;-56
2022/11/13 09:46:55;;;;;;;10.53;5.47;;;;;;;3.78;97.71;94341.47;4893947;29;20059;-58
2022/11/13 09:49:32;;;;;;;10.65;5.90;;;;;;;3.88;96.56;94331.13;4894355;29;20044;-56
2022/11/13 09:52:04;;;;;;;10.13;5.30;;;;;;;3.85;96.44;94329.16;4893587;29;20545;-55
2022/11/13 09:54:32;;;;;;;9.77;5.25;;;;;;;3.88;95.95;94329.19;4894424;29;20047;-54
2022/11/13 09:57:18;;;;;;;9.73;5.55;;;;;;;4.29;94.67;94336.84;4876833;29;20060;-54
2022/11/13 10:00:00;;;;;;;11.03;6.70;;;;;;;3.95;96.01;94336.69;4878239;29;20045;-54
2022/11/13 10:02:36;;;;;;;9.95;6.35;;;;;;;4.28;93.93;94336.03;4893096;29;20053;-54
2022/11/13 10:05:06;;;;;;;9.93;5.28;;;;;;;4.31;93.94;94340.75;4893456;29;20642;-52
2022/11/13 10:08:05;;;;;;;9.68;5.95;;;;;;;4.17;92.39;94351.41;4894284;29;20421;-56
2022/11/13 10:10:37;;;;;;;9.07;5.45;;;;;;;4.62;92.77;94348.97;4875962;29;20719;-52
2022/11/13 10:13:05;;;;;;;8.60;5.20;;;;;;;4.70;91.74;94350.63;4893172;29;21615;-55
2022/11/13 10:15:32;;;;;;;10.10;5.50;;;;;;;4.62;91.54;94349.75;4893836;29;20052;-52
2022/11/13 10:18:12;;;;;;;10.15;5.88;;;;;;;4.63;92.65;94350.53;4893451;29;20053;-51
2022/11/13 10:20:43;;;;;;;8.57;5.07;;;;;;;5.19;89.98;94339.63;4893530;29;20056;-52
2022/11/13 10:23:18;;;;;;;10.23;6.22;;;;;;;5.33;88.34;94330.84;4893564;29;20051;-51
2022/11/13 10:25:46;;;;;;;9.43;5.50;;;;;;;4.97;88.30;94346.75;4876763;29;20056;-50
2022/11/13 10:28:25;;;;;;;10.93;6.07;;;;;;;4.87;90.89;94341.16;4893524;29;20056;-49
2022/11/13 10:31:12;;;;;;;11.43;5.97;;;;;;;5.03;90.51;94332.81;4891933;29;21889;-53
2022/11/13 10:33:39;;;;;;;9.13;5.22;;;;;;;4.52;92.32;94321.25;4861557;29;20080;-56
2022/11/13 10:36:35;;;;;;;10.85;5.70;;;;;;;4.09;94.12;94304.34;4876523;29;20045;-53
2022/11/13 10:39:06;;;;;;;8.90;4.57;;;;;;;4.27;94.51;94291.03;4894413;29;21775;-53
2022/11/13 10:41:45;;;;;;;11.80;5.47;;;;;;;4.59;93.28;94280.59;4896616;29;20044;-56
2022/11/13 10:44:31;;;;;;;9.73;5.50;;;;;;;4.81;91.42;94275.44;4892720;29;20506;-57
2022/11/13 10:47:04;;;;;;;9.45;5.28;;;;;;;4.91;91.47;94263.09;4893105;29;20045;-54
2022/11/13 10:49:31;;;;;;;8.63;5.07;;;;;;;5.15;88.95;94272.72;4893608;29;20119;-56
2022/11/13 10:52:02;;;;;;;9.10;5.50;;;;;;;4.89;91.12;94268.13;4892802;29;20051;-55
2022/11/13 10:54:35;;;;;;;9.40;5.03;;;;;;;4.79;90.47;94270.38;4892783;29;20048;-54
2022/11/13 10:57:15;;;;;;;9.20;5.35;;;;;;;4.72;91.73;94259.41;4893548;29;20170;-55
2022/11/13 10:59:43;;;;;;;8.90;5.10;;;;;;;4.85;91.39;94256.44;4893226;29;20036;-53
2022/11/13 11:02:10;;;;;;;9.20;5.65;;;;;;;5.17;90.00;94256.78;4892381;29;20048;-55
2022/11/13 11:04:37;;;;;;;8.83;5.33;;;;;;;5.68;87.86;94245.25;4892841;29;20107;-53
2022/11/13 11:07:14;;;;;;;8.68;5.28;;;;;;;5.85;85.73;94257.44;4893303;29;20459;-58
2022/11/13 11:09:50;;;;;;;9.45;5.38;;;;;;;6.04;84.77;94242.03;4892605;29;20363;-55
2022/11/13 11:12:18;;;;;;;8.65;5.05;;;;;;;5.65;85.98;94254.16;4892935;29;20103;-54
2022/11/13 11:14:59;;;;;;;8.55;4.72;;;;;;;5.51;87.62;94243.13;4875874;29;20049;-56
2022/11/13 11:17:49;;;;;;;8.40;4.90;;;;;;;5.94;85.10;94241.56;4892839;29;20494;-54
2022/11/13 11:20:21;;;;;;;8.65;5.25;;;;;;;6.10;84.33;94229.66;4891931;29;20196;-54
2022/11/13 11:22:53;;;;;;;9.35;5.38;;;;;;;5.84;85.43;94241.50;4892435;29;20084;-51
2022/11/13 11:25:26;;;;;;;9.57;5.20;;;;;;;5.96;86.57;94233.06;4893048;29;20115;-55
2022/11/13 11:28:16;;;;;;;9.52;5.70;;;;;;;6.24;84.80;94226.22;4892419;29;20504;-54
2022/11/13 11:30:52;;;;;;;8.47;5.30;;;;;;;5.91;85.60;94231.41;4859027;29;20048;-51
2022/11/13 11:33:31;;;;;;;11.07;6.35;;;;;;;5.50;88.41;94225.25;4854483;29;20050;-53
2022/11/13 11:36:10;;;;;;;12.02;6.60;;;;;;;5.74;89.21;94224.69;4855548;29;20053;-51